Vremea acum in Galați - Romania

Vrei sa afli care e starea vremii acum in Galati - Romania? Dorim sa iti furnizam starea vremii pentru Galati - Romania. Starea vremii Galati - Romania pentru astazi.

Vremea acum in Galați

Temperatura: 14.3 °C

Este: Ploaie ușoară
Se simte ca: 14.8 °C
Innorat: 75 %
Precipitatii: 100 %
Presiune atmosferica: 1015 hPa
Umiditate: 100%
Vizibilitate: 6 km
Vantul bate din SE cu 4.3 km/h

Evolutia vremii in Galați pe ore

Ora: 08:00
Patchy rain nearby
Temperatura: 13.6°C
Sansa de precipitatii: 100%
Ora Descriere Temp Se simte Precipitatii Umiditate Vant
00:00Patchy rain nearby14.4°14.4°100%90%ESE 6.5 KM/H
01:00Patchy rain nearby14.1°14.1°100%91%ESE 6.1 KM/H
02:00Patchy rain nearby14°14.2°77%91%E 5.4 KM/H
03:00Patchy rain nearby13.9°14.1°73%90%E 5.4 KM/H
04:00Burniță ușoară13.4°13.2°100%91%ESE 6.8 KM/H
05:00Burniță ușoară13.4°13.3°100%93%ESE 6.5 KM/H
06:00Patchy rain nearby13.3°13.4°100%94%ESE 5.4 KM/H
07:00Patchy rain nearby13.4°13.7°100%93%ESE 4.7 KM/H
08:00Patchy rain nearby13.6°14°100%92%ESE 4.3 KM/H
09:00Ploaie ușoară14.3°14.3°100%100%SE 4.3 KM/H
10:00Patchy rain nearby13.9°14.5°100%90%SSE 4 KM/H
11:00Burniță ușoară14°14°100%90%SW 2.9 KM/H
12:00Burniță ușoară14°14.2°100%91%WNW 5.8 KM/H
13:00Patchy rain nearby14.2°13.5°100%90%NW 11.5 KM/H
14:00Patchy rain nearby14.6°13.5°100%88%N 16.2 KM/H
15:00Patchy rain nearby14.7°13.5°100%85%N 18.4 KM/H
16:00Innorat15.9°15.9°0%78%NNE 18.4 KM/H
17:00Patchy rain nearby17.8°17.8°71%68%N 16.6 KM/H
18:00Patchy rain nearby18.3°18.3°85%63%N 15.1 KM/H
19:0018°18.1°0%65%N 10.4 KM/H
20:00Senin16.5°16.5°0%69%NNE 4.7 KM/H
21:00Senin14.6°15.1°0%75%NNE 4.3 KM/H
22:00Senin13.6°14.1°0%78%N 4.3 KM/H
23:0013°13.4°0%81%NW 4.3 KM/H




tutorials